createdAt,value
2019-04-21T00:02:32.242Z,65.38
2019-04-21T00:05:16.511Z,66.54
2019-04-21T00:09:32.650Z,65.93
2019-04-21T00:17:19.312Z,65.52
2019-04-21T00:41:09.245Z,66.87
2019-04-21T00:43:32.951Z,67.98
2019-04-21T00:45:57.830Z,67.78
2019-04-21T00:48:45.670Z,68.43
2019-04-21T00:51:31.134Z,68.97
2019-04-21T00:53:57.902Z,68.69
2019-04-21T00:56:25.764Z,68.49
2019-04-21T00:58:56.174Z,69.36
2019-04-21T01:01:21.976Z,68.79
2019-04-21T01:03:57.859Z,69.25
2019-04-21T01:06:22.732Z,69.35
2019-04-21T01:08:55.650Z,70.28
2019-04-21T01:11:28.101Z,69.80
2019-04-21T01:13:59.570Z,70.88
2019-04-21T01:16:37.490Z,71.30
2019-04-21T01:18:54.784Z,71.44
2019-04-21T01:21:14.002Z,71.60
2019-04-21T01:23:40.164Z,72.05
2019-04-21T01:26:23.760Z,72.49
2019-04-21T01:29:01.509Z,72.32
2019-04-21T01:31:30.533Z,72.54
2019-04-21T01:34:03.100Z,72.44
2019-04-21T01:36:33.453Z,72.84
2019-04-21T01:39:09.904Z,72.94
2019-04-21T01:41:41.301Z,73.43
2019-04-21T01:44:01.113Z,72.69
2019-04-21T01:46:33.709Z,73.02
2019-04-21T01:49:05.629Z,72.84
2019-04-21T01:51:59.669Z,73.37
2019-04-21T01:54:22.202Z,73.69
2019-04-21T01:57:00.168Z,74.23
2019-04-21T01:59:26.953Z,73.92
2019-04-21T02:02:08.040Z,74.04
2019-04-21T02:04:41.258Z,74.59
2019-04-21T02:07:13.021Z,74.56
2019-04-21T02:09:38.274Z,73.84
2019-04-21T02:12:08.821Z,74.57
2019-04-21T02:14:46.336Z,74.55
2019-04-21T02:17:15.109Z,74.55
2019-04-21T02:19:37.504Z,74.90
2019-04-21T02:22:11.209Z,75.12
2019-04-21T02:24:49.615Z,74.69
2019-04-21T02:27:19.076Z,74.51
2019-04-21T02:29:48.687Z,73.73
2019-04-21T02:32:26.185Z,74.39
2019-04-21T02:40:05.087Z,75.46
2019-04-21T02:42:40.657Z,75.19
2019-04-21T02:47:48.544Z,73.99
2019-04-21T02:50:09.546Z,75.41
2019-04-21T02:57:41.230Z,75.39
2019-04-21T03:00:16.955Z,75.88
2019-04-21T03:03:09.240Z,76.13
2019-04-21T03:08:27.993Z,76.12
2019-04-21T03:10:54.008Z,76.97
2019-04-21T03:15:59.244Z,76.84
2019-04-21T03:18:32.694Z,76.53
2019-04-21T03:21:05.132Z,77.18
2019-04-21T03:23:32.106Z,77.44
2019-04-21T03:26:00.957Z,76.00
2019-04-21T03:28:30.584Z,77.38
2019-04-21T03:31:18.848Z,77.36
2019-04-21T03:38:43.048Z,76.68
2019-04-21T03:41:08.078Z,76.86
2019-04-21T03:46:01.188Z,77.86
2019-04-21T03:48:35.592Z,78.35
2019-04-21T03:56:44.827Z,77.53
2019-04-21T04:01:44.533Z,78.40
2019-04-21T04:04:30.365Z,79.15
2019-04-21T04:07:55.670Z,78.74
2019-04-21T04:10:06.477Z,78.64
2019-04-21T04:12:29.441Z,77.40
2019-04-21T04:14:55.586Z,78.07
2019-04-21T04:17:26.661Z,78.16
2019-04-21T04:20:04.028Z,78.19
2019-04-21T04:22:41.679Z,78.45
2019-04-21T04:25:04.618Z,78.69
2019-04-21T04:27:46.899Z,77.51
2019-04-21T04:30:10.679Z,78.23
2019-04-21T04:32:38.678Z,78.46
2019-04-21T04:35:26.355Z,78.88
2019-04-21T04:37:36.270Z,78.81
2019-04-21T04:40:14.232Z,78.87
2019-04-21T04:43:09.004Z,77.42
2019-04-21T04:46:12.760Z,78.66
2019-04-21T04:48:07.530Z,78.34
2019-04-21T04:53:12.651Z,77.96
2019-04-21T04:55:38.868Z,78.45
2019-04-21T04:58:11.118Z,78.50
2019-04-21T05:03:18.916Z,77.72
2019-04-21T05:09:03.494Z,76.85
2019-04-21T05:14:04.529Z,72.14
2019-04-21T05:19:10.713Z,63.31
2019-04-21T05:23:51.089Z,55.76
2019-04-21T05:26:14.457Z,60.01
2019-04-21T05:28:44.599Z,59.48
2019-04-21T05:31:47.688Z,57.80
2019-04-21T05:34:18.393Z,55.85
2019-04-21T05:37:07.482Z,56.88
2019-04-21T05:39:39.905Z,58.87
2019-04-21T05:42:06.412Z,56.66
2019-04-21T05:47:26.557Z,51.25
2019-04-21T05:49:56.759Z,47.83
2019-04-21T05:52:23.230Z,41.40
2019-04-21T05:55:06.295Z,40.44
2019-04-21T05:57:32.328Z,43.96
2019-04-21T06:00:07.460Z,49.04
2019-04-21T06:02:53.397Z,50.26
2019-04-21T06:05:13.732Z,55.80
2019-04-21T06:07:38.214Z,56.63
2019-04-21T06:10:20.381Z,57.98
2019-04-21T06:12:40.496Z,59.90
2019-04-21T06:15:07.009Z,57.62
2019-04-21T06:17:44.480Z,57.53
2019-04-21T06:20:10.483Z,57.08
2019-04-21T06:22:38.649Z,54.80
2019-04-21T06:27:49.501Z,54.31
2019-04-21T06:30:10.401Z,52.09
2019-04-21T06:35:48.941Z,33.57
2019-04-21T06:38:10.545Z,30.58
2019-04-21T06:40:43.822Z,30.12
2019-04-21T06:43:24.538Z,31.35
2019-04-21T06:45:45.864Z,29.43
2019-04-21T06:48:15.290Z,29.76
2019-04-21T06:50:46.685Z,27.65
2019-04-21T06:53:14.166Z,30.85
2019-04-21T06:55:37.951Z,26.76
2019-04-21T06:58:13.161Z,29.44
2019-04-21T07:00:40.560Z,27.50
2019-04-21T07:05:52.707Z,26.85
2019-04-21T07:08:31.286Z,26.65
2019-04-21T07:10:52.084Z,28.04
2019-04-21T07:13:15.332Z,27.56
2019-04-21T07:15:49.930Z,25.51
2019-04-21T07:18:19.180Z,28.40
2019-04-21T07:20:56.495Z,27.20
2019-04-21T07:23:25.286Z,30.69
2019-04-21T07:26:01.097Z,31.05
2019-04-21T07:28:25.351Z,32.59
2019-04-21T07:31:03.624Z,36.97
2019-04-21T07:36:21.348Z,35.93
2019-04-21T07:38:45.253Z,34.38
2019-04-21T07:43:44.022Z,34.46
2019-04-21T07:46:10.738Z,35.68
2019-04-21T07:48:50.119Z,35.83
2019-04-21T07:52:06.021Z,35.91
2019-04-21T07:54:35.975Z,34.72
2019-04-21T07:56:55.969Z,34.97
2019-04-21T07:59:52.387Z,34.05
2019-04-21T08:02:00.833Z,35.06
2019-04-21T08:04:52.798Z,36.16
2019-04-21T08:07:09.936Z,34.22
2019-04-21T08:09:40.965Z,34.81
2019-04-21T08:12:04.143Z,34.79
2019-04-21T08:14:42.890Z,35.27
2019-04-21T08:17:16.410Z,34.74
2019-04-21T08:19:44.602Z,34.00
2019-04-21T08:22:15.778Z,35.24
2019-04-21T08:24:57.743Z,33.27
2019-04-21T08:27:28.288Z,33.95
2019-04-21T08:29:58.205Z,33.25
2019-04-21T08:32:39.133Z,34.68
2019-04-21T08:35:25.361Z,34.53
2019-04-21T08:37:31.293Z,33.74
2019-04-21T08:42:30.524Z,34.23
2019-04-21T08:45:07.675Z,32.13
2019-04-21T08:47:42.632Z,31.57
2019-04-21T08:50:31.003Z,31.20
2019-04-21T08:53:04.063Z,31.06
2019-04-21T08:55:49.240Z,32.44
2019-04-21T09:01:50.364Z,32.98
2019-04-21T09:04:21.229Z,30.51
2019-04-21T09:09:23.651Z,31.90
2019-04-21T09:11:54.309Z,31.51
2019-04-21T09:14:26.976Z,30.84
2019-04-21T09:16:53.711Z,31.29
2019-04-21T09:19:38.647Z,31.99
2019-04-21T09:22:00.614Z,32.95
2019-04-21T09:24:27.619Z,32.17
2019-04-21T09:26:57.934Z,30.96
2019-04-21T09:29:25.671Z,31.44
2019-04-21T09:31:48.014Z,31.26
2019-04-21T09:37:53.402Z,31.54
2019-04-21T09:40:33.943Z,30.60
2019-04-21T09:43:02.622Z,32.49
2019-04-21T09:45:28.568Z,30.94
2019-04-21T09:48:04.543Z,30.71
2019-04-21T09:50:29.545Z,30.04
2019-04-21T09:53:10.269Z,30.66
2019-04-21T09:55:36.430Z,29.96
2019-04-21T09:58:12.646Z,30.43
2019-04-21T10:00:43.403Z,28.86
2019-04-21T10:03:15.680Z,29.83
2019-04-21T10:05:45.132Z,29.80
2019-04-21T10:08:58.581Z,26.45
2019-04-21T10:11:33.808Z,25.13
2019-04-21T10:14:03.221Z,25.23
2019-04-21T10:16:38.557Z,25.62
2019-04-21T10:19:08.783Z,25.47
2019-04-21T10:21:38.108Z,25.88
2019-04-21T10:24:08.235Z,25.29
2019-04-21T10:26:37.659Z,24.85
2019-04-21T10:29:14.767Z,25.54
2019-04-21T10:31:38.585Z,25.76
2019-04-21T10:34:25.293Z,25.56
2019-04-21T10:36:55.306Z,26.86
2019-04-21T10:39:24.495Z,26.47
2019-04-21T10:41:53.411Z,25.62
2019-04-21T10:44:23.169Z,25.98
2019-04-21T10:46:54.507Z,26.01
2019-04-21T10:49:24.498Z,27.75
2019-04-21T10:51:54.914Z,25.76
2019-04-21T10:54:24.130Z,26.61
2019-04-21T10:57:40.777Z,27.62
2019-04-21T11:03:50.831Z,26.08
2019-04-21T11:06:48.574Z,27.17
2019-04-21T11:12:50.768Z,26.02
2019-04-21T11:18:42.116Z,26.86
2019-04-21T11:21:11.428Z,26.05
2019-04-21T11:23:40.571Z,25.89
2019-04-21T11:26:10.069Z,26.04
2019-04-21T11:28:38.998Z,25.32
2019-04-21T11:31:09.036Z,25.63
2019-04-21T11:33:39.466Z,24.67
2019-04-21T11:36:09.095Z,24.68
2019-04-21T11:38:57.121Z,19.58
2019-04-21T11:41:27.869Z,21.08
2019-04-21T11:43:57.376Z,22.02
2019-04-21T11:46:26.802Z,22.32
2019-04-21T11:48:55.990Z,21.63
2019-04-21T11:51:25.003Z,23.23
2019-04-21T11:53:54.979Z,21.77
2019-04-21T11:56:25.096Z,20.89
2019-04-21T11:58:54.160Z,22.25
2019-04-21T12:01:23.484Z,22.55
2019-04-21T12:03:53.760Z,23.11
2019-04-21T12:06:40.966Z,23.50
2019-04-21T12:09:09.526Z,23.45
2019-04-21T12:11:39.026Z,22.90
2019-04-21T12:14:08.090Z,23.30
2019-04-21T12:16:37.232Z,23.39
2019-04-21T12:19:07.190Z,22.14
2019-04-21T12:22:23.147Z,22.26
2019-04-21T12:24:38.130Z,22.65
2019-04-21T12:27:09.730Z,21.82
2019-04-21T12:29:39.927Z,22.51
2019-04-21T12:32:26.386Z,22.19
2019-04-21T12:34:55.730Z,22.17
2019-04-21T12:37:24.756Z,23.78
2019-04-21T12:39:54.778Z,24.82
2019-04-21T12:42:38.738Z,23.37
2019-04-21T12:45:07.589Z,24.00
2019-04-21T12:47:37.804Z,23.11
2019-04-21T12:50:08.773Z,22.84
2019-04-21T12:52:37.934Z,23.29
2019-04-21T12:55:07.278Z,23.64
2019-04-21T12:57:37.236Z,23.12
2019-04-21T13:00:11.107Z,23.53
2019-04-21T13:02:40.110Z,23.25
2019-04-21T13:05:21.953Z,23.33
2019-04-21T13:07:51.298Z,25.21
2019-04-21T13:10:22.237Z,23.62
2019-04-21T13:12:52.152Z,24.38
2019-04-21T13:15:21.943Z,23.43
2019-04-21T13:17:52.225Z,23.16
2019-04-21T13:20:23.195Z,21.00
2019-04-21T13:22:54.041Z,22.76
2019-04-21T13:25:23.701Z,23.73
2019-04-21T13:28:07.001Z,24.29
2019-04-21T13:30:36.412Z,23.91
2019-04-21T13:33:07.034Z,22.24
2019-04-21T13:35:37.186Z,22.98
2019-04-21T13:38:18.862Z,22.15
2019-04-21T13:46:13.664Z,23.31
2019-04-21T13:48:44.402Z,22.98
2019-04-21T13:51:13.570Z,23.18
2019-04-21T13:54:03.976Z,22.92
2019-04-21T13:57:30.374Z,22.75
2019-04-21T13:59:59.616Z,23.47
2019-04-21T14:02:28.976Z,23.66
2019-04-21T14:04:59.180Z,22.72
2019-04-21T14:07:41.990Z,23.30
2019-04-21T14:10:13.789Z,24.32
2019-04-21T14:12:42.517Z,24.12
2019-04-21T14:15:12.554Z,22.63
2019-04-21T14:17:42.543Z,22.61
2019-04-21T14:20:13.210Z,23.46
2019-04-21T14:22:42.293Z,22.58
2019-04-21T14:25:12.139Z,23.84
2019-04-21T14:27:41.835Z,22.12
2019-04-21T14:30:30.420Z,22.44
2019-04-21T14:33:00.321Z,22.25
2019-04-21T14:35:29.491Z,21.77
2019-04-21T14:37:58.524Z,22.33
2019-04-21T14:40:30.920Z,21.86
2019-04-21T14:42:58.473Z,23.24
2019-04-21T14:45:36.938Z,24.53
2019-04-21T14:48:27.278Z,22.78
2019-04-21T14:51:14.241Z,23.01
2019-04-21T14:54:03.772Z,24.34
2019-04-21T14:56:53.156Z,24.00
2019-04-21T14:59:24.760Z,24.67
2019-04-21T15:01:54.017Z,24.20
2019-04-21T15:04:24.139Z,23.71
2019-04-21T15:06:55.136Z,23.19
2019-04-21T15:09:25.300Z,22.96
2019-04-21T15:11:54.426Z,22.34
2019-04-21T15:14:24.093Z,22.30
2019-04-21T15:17:12.448Z,22.96
2019-04-21T15:19:49.284Z,23.44
2019-04-21T15:22:14.398Z,23.32
2019-04-21T15:24:44.511Z,23.18
2019-04-21T15:27:14.685Z,23.86
2019-04-21T15:29:44.866Z,23.37
2019-04-21T15:32:14.895Z,23.41
2019-04-21T15:34:44.419Z,22.49
2019-04-21T15:37:13.703Z,22.44
2019-04-21T15:40:14.940Z,24.00
2019-04-21T15:42:33.015Z,24.03
2019-04-21T15:45:02.913Z,23.75
2019-04-21T15:47:32.136Z,23.61
2019-04-21T15:50:07.391Z,23.46
2019-04-21T15:52:33.759Z,23.61
2019-04-21T15:55:06.673Z,22.66
2019-04-21T15:57:54.346Z,23.13
2019-04-21T16:00:49.859Z,22.51
2019-04-21T16:06:55.369Z,22.91
2019-04-21T16:09:27.081Z,24.12
2019-04-21T16:11:55.787Z,23.47
2019-04-21T16:14:42.798Z,23.34
2019-04-21T16:17:11.951Z,23.59
2019-04-21T16:19:43.860Z,24.55
2019-04-21T16:22:12.985Z,25.14
2019-04-21T16:24:42.124Z,25.09
2019-04-21T16:27:12.695Z,25.86
2019-04-21T16:29:43.872Z,25.78
2019-04-21T16:32:14.693Z,25.92
2019-04-21T16:34:50.730Z,26.29
2019-04-21T16:37:33.622Z,25.66
2019-04-21T16:40:03.432Z,26.46
2019-04-21T16:43:10.094Z,26.18
2019-04-21T16:45:57.335Z,26.10
2019-04-21T16:48:27.369Z,27.44
2019-04-21T16:50:57.416Z,30.05
2019-04-21T16:53:43.936Z,32.34
2019-04-21T16:56:41.765Z,33.95
2019-04-21T16:59:28.693Z,34.63
2019-04-21T17:02:00.634Z,34.89
2019-04-21T17:04:30.676Z,35.36
2019-04-21T17:07:00.882Z,35.93
2019-04-21T17:09:30.613Z,36.08
2019-04-21T17:12:26.783Z,35.65
2019-04-21T17:15:10.905Z,36.05
2019-04-21T17:17:51.359Z,36.52
2019-04-21T17:20:11.880Z,36.29
2019-04-21T17:22:27.947Z,36.91
2019-04-21T17:24:58.245Z,36.57
2019-04-21T17:27:27.242Z,36.51
2019-04-21T17:30:16.616Z,36.63
2019-04-21T17:32:49.758Z,38.10
2019-04-21T17:35:19.459Z,36.85
2019-04-21T17:37:49.930Z,37.72
2019-04-21T17:40:24.097Z,37.45
2019-04-21T17:43:01.327Z,37.64
2019-04-21T17:45:23.980Z,37.71
2019-04-21T17:48:16.167Z,37.50
2019-04-21T17:51:19.251Z,37.12
2019-04-21T17:54:13.674Z,38.05
2019-04-21T17:57:04.465Z,38.54
2019-04-21T17:59:41.163Z,38.51
2019-04-21T18:02:02.418Z,38.05
2019-04-21T18:04:30.635Z,38.03
2019-04-21T18:07:05.104Z,38.93
2019-04-21T18:12:28.022Z,38.70
2019-04-21T18:14:56.527Z,37.96
2019-04-21T18:17:18.498Z,38.36
2019-04-21T18:19:51.309Z,38.27
2019-04-21T18:22:54.609Z,38.36
2019-04-21T18:25:37.497Z,38.64
2019-04-21T18:27:56.408Z,38.58
2019-04-21T18:30:49.109Z,39.11
2019-04-21T18:33:27.099Z,38.84
2019-04-21T18:36:21.283Z,39.73
2019-04-21T18:39:09.752Z,39.20
2019-04-21T18:41:28.761Z,39.56
2019-04-21T18:44:30.256Z,39.90
2019-04-21T18:47:16.661Z,40.50
2019-04-21T18:56:20.836Z,41.07
2019-04-21T18:58:51.068Z,41.64
2019-04-21T19:01:27.836Z,40.63
2019-04-21T19:03:58.283Z,41.08
2019-04-21T19:06:47.016Z,41.32
2019-04-21T19:13:28.526Z,41.81
2019-04-21T19:15:39.981Z,42.63
2019-04-21T19:20:42.959Z,43.22
2019-04-21T19:23:11.590Z,43.88
2019-04-21T19:25:59.381Z,43.37
2019-04-21T19:28:17.985Z,43.85
2019-04-21T19:31:11.542Z,43.24
2019-04-21T19:33:33.323Z,43.60
2019-04-21T19:35:59.620Z,43.22
2019-04-21T19:38:44.440Z,43.91
2019-04-21T19:41:20.733Z,43.77
2019-04-21T19:43:53.675Z,43.96
2019-04-21T19:46:27.605Z,42.75
2019-04-21T19:49:10.934Z,44.54
2019-04-21T19:51:26.381Z,43.64
2019-04-21T19:53:56.106Z,43.75
2019-04-21T19:56:18.647Z,43.84
2019-04-21T19:59:48.542Z,45.56
2019-04-21T20:02:16.506Z,43.79
2019-04-21T20:05:07.042Z,44.12
2019-04-21T20:07:48.267Z,44.64
2019-04-21T20:10:27.308Z,44.52
2019-04-21T20:12:59.578Z,44.54
2019-04-21T20:15:37.417Z,44.73
2019-04-21T20:18:00.207Z,44.72
2019-04-21T20:20:17.125Z,44.85
2019-04-21T20:26:30.463Z,45.38
2019-04-21T20:29:10.983Z,45.87
2019-04-21T20:31:48.699Z,45.63
2019-04-21T20:34:30.556Z,46.67
2019-04-21T20:37:00.009Z,46.22
2019-04-21T20:39:19.044Z,46.39
2019-04-21T20:41:57.544Z,46.07
2019-04-21T20:44:32.897Z,47.72
2019-04-21T20:46:59.888Z,47.29
2019-04-21T20:49:28.543Z,46.81
2019-04-21T20:52:14.281Z,47.02
2019-04-21T20:54:37.046Z,47.69
2019-04-21T20:57:06.032Z,47.88
2019-04-21T20:59:34.218Z,47.45
2019-04-21T21:02:05.598Z,47.33
2019-04-21T21:04:31.751Z,47.77
2019-04-21T21:07:30.550Z,47.75
2019-04-21T21:09:49.996Z,48.04
2019-04-21T21:12:33.790Z,48.17
2019-04-21T21:14:43.867Z,48.33
2019-04-21T21:17:37.876Z,50.08
2019-04-21T21:19:52.858Z,48.50
2019-04-21T21:22:14.864Z,48.22
2019-04-21T21:24:53.416Z,48.63
2019-04-21T21:27:24.130Z,49.55
2019-04-21T21:29:56.696Z,49.06
2019-04-21T21:32:27.530Z,49.68
2019-04-21T21:35:01.359Z,49.43
2019-04-21T21:37:32.338Z,49.70
2019-04-21T21:40:07.200Z,49.66
2019-04-21T21:42:22.017Z,49.60
2019-04-21T21:44:50.468Z,50.75
2019-04-21T21:47:31.951Z,51.31
2019-04-21T21:49:55.443Z,51.09
2019-04-21T21:52:32.728Z,51.42
2019-04-21T21:54:49.770Z,51.58
2019-04-21T21:57:20.616Z,51.71
2019-04-21T21:59:51.726Z,51.71
2019-04-21T22:02:31.934Z,51.76
2019-04-21T22:05:01.424Z,51.22
2019-04-21T22:07:28.035Z,52.47
2019-04-21T22:09:54.759Z,51.59
2019-04-21T22:12:23.911Z,52.33
2019-04-21T22:14:55.457Z,52.87
2019-04-21T22:17:41.589Z,53.40
2019-04-21T22:20:17.212Z,53.46
2019-04-21T22:22:39.002Z,52.86
2019-04-21T22:25:06.972Z,53.16
2019-04-21T22:27:30.781Z,53.32
2019-04-21T22:30:03.927Z,54.39
2019-04-21T22:32:34.547Z,54.21
2019-04-21T22:35:08.783Z,53.81
2019-04-21T22:37:43.908Z,53.46
2019-04-21T22:40:19.282Z,54.34
2019-04-21T22:42:47.451Z,54.71
2019-04-21T22:45:09.266Z,54.89
2019-04-21T22:47:41.246Z,54.94
2019-04-21T22:50:18.719Z,54.51
2019-04-21T22:52:53.338Z,53.59
2019-04-21T22:55:22.662Z,54.45
2019-04-21T22:57:53.258Z,53.90
2019-04-21T23:00:23.924Z,53.14
2019-04-21T23:03:01.314Z,53.14
2019-04-21T23:05:30.258Z,53.47
2019-04-21T23:08:01.455Z,52.96
2019-04-21T23:10:27.437Z,52.69
2019-04-21T23:12:59.625Z,52.60
2019-04-21T23:15:37.501Z,53.52
2019-04-21T23:18:22.133Z,52.58
2019-04-21T23:20:47.970Z,52.70
2019-04-21T23:23:21.023Z,51.92
2019-04-21T23:25:51.689Z,52.27
2019-04-21T23:28:16.099Z,51.97
2019-04-21T23:30:54.694Z,52.47
2019-04-21T23:33:10.879Z,52.20
2019-04-21T23:35:41.820Z,52.44
2019-04-21T23:38:10.973Z,52.31
2019-04-21T23:40:49.540Z,52.09
2019-04-21T23:43:17.269Z,52.70
2019-04-21T23:45:45.334Z,52.77
2019-04-21T23:48:28.834Z,53.08
2019-04-21T23:50:55.082Z,53.33
2019-04-21T23:53:19.564Z,53.63
2019-04-21T23:55:49.485Z,53.73
2019-04-21T23:58:25.235Z,52.32
